createdAt,value
2023-11-23T00:02:06.978Z,20.03
2023-11-23T00:07:08.597Z,20.62
2023-11-23T00:12:10.292Z,20.07
2023-11-23T00:17:11.895Z,20.44
2023-11-23T00:22:13.622Z,20.57
2023-11-23T00:27:16.349Z,19.43
2023-11-23T00:32:19.108Z,20.03
2023-11-23T00:37:23.095Z,20.41
2023-11-23T00:42:25.839Z,20.37
2023-11-23T00:47:27.634Z,20.53
2023-11-23T00:52:30.379Z,20.58
2023-11-23T00:57:33.385Z,20.52
2023-11-23T01:02:37.158Z,20.26
2023-11-23T01:07:39.531Z,19.92
2023-11-23T01:12:41.060Z,21.66
2023-11-23T01:17:43.343Z,21.40
2023-11-23T01:22:45.358Z,20.83
2023-11-23T01:27:46.946Z,21.43
2023-11-23T01:32:49.363Z,20.74
2023-11-23T01:37:51.006Z,21.33
2023-11-23T01:42:52.520Z,21.21
2023-11-23T01:47:54.739Z,21.71
2023-11-23T01:52:56.560Z,20.90
2023-11-23T01:58:03.491Z,21.36
2023-11-23T02:03:05.718Z,21.22
2023-11-23T02:08:08.315Z,20.84
2023-11-23T02:13:09.935Z,22.22
2023-11-23T02:18:12.745Z,21.01
2023-11-23T02:23:14.547Z,20.37
2023-11-23T02:28:16.232Z,21.50
2023-11-23T02:33:17.935Z,21.28
2023-11-23T02:38:19.549Z,21.99
2023-11-23T02:43:21.999Z,21.89
2023-11-23T02:48:23.849Z,21.32
2023-11-23T02:53:29.529Z,21.36
2023-11-23T02:58:31.095Z,21.76
2023-11-23T03:03:33.085Z,21.30
2023-11-23T03:08:34.703Z,21.89
2023-11-23T03:13:36.280Z,21.69
2023-11-23T03:18:38.164Z,21.95
2023-11-23T03:23:42.439Z,21.96
2023-11-23T03:28:44.202Z,21.49
2023-11-23T03:33:45.750Z,21.64
2023-11-23T03:38:49.438Z,22.43
2023-11-23T03:43:51.535Z,21.67
2023-11-23T03:48:54.514Z,22.02
2023-11-23T03:53:56.173Z,21.89
2023-11-23T03:58:57.804Z,22.07
2023-11-23T04:03:59.453Z,22.06
2023-11-23T04:09:01.041Z,22.03
2023-11-23T04:14:02.697Z,21.87
2023-11-23T04:19:04.811Z,22.97
2023-11-23T04:24:06.854Z,22.62
2023-11-23T04:29:08.573Z,23.09
2023-11-23T04:34:10.166Z,22.44
2023-11-23T04:39:14.120Z,22.52
2023-11-23T04:44:16.726Z,23.83
2023-11-23T04:49:18.437Z,22.77
2023-11-23T04:54:20.060Z,22.81
2023-11-23T04:59:21.836Z,23.76
2023-11-23T05:04:23.437Z,23.76
2023-11-23T05:09:25.114Z,23.30
2023-11-23T05:14:26.679Z,23.09
2023-11-23T05:19:36.198Z,23.10
2023-11-23T05:24:44.031Z,23.49
2023-11-23T05:29:47.619Z,23.18
2023-11-23T05:34:51.066Z,23.67
2023-11-23T05:39:52.678Z,23.17
2023-11-23T05:44:54.260Z,23.62
2023-11-23T05:49:55.854Z,22.26
2023-11-23T05:54:57.963Z,23.80
2023-11-23T05:59:59.524Z,24.26
2023-11-23T06:05:01.135Z,22.89
2023-11-23T06:10:06.022Z,24.10
2023-11-23T06:15:08.566Z,22.73
2023-11-23T06:20:13.668Z,23.61
2023-11-23T06:25:16.337Z,23.22
2023-11-23T06:30:19.197Z,23.19
2023-11-23T06:35:20.946Z,22.88
2023-11-23T06:40:22.545Z,23.07
2023-11-23T06:45:24.116Z,23.89
2023-11-23T06:50:25.663Z,23.70
2023-11-23T06:55:27.237Z,23.14
2023-11-23T07:00:29.082Z,22.81
2023-11-23T07:05:30.772Z,22.84
2023-11-23T07:10:35.324Z,22.66
2023-11-23T07:15:37.159Z,23.04
2023-11-23T07:20:39.442Z,22.76
2023-11-23T07:25:44.787Z,23.39
2023-11-23T07:30:46.412Z,24.20
2023-11-23T07:35:49.602Z,24.05
2023-11-23T07:40:51.230Z,23.93
2023-11-23T07:45:52.781Z,22.64
2023-11-23T07:50:54.440Z,23.20
2023-11-23T07:55:56.156Z,22.86
2023-11-23T08:00:58.742Z,22.49
2023-11-23T08:06:00.465Z,22.40
2023-11-23T08:11:02.160Z,22.37
2023-11-23T08:16:05.434Z,23.26
2023-11-23T08:21:07.210Z,23.59
2023-11-23T08:26:09.537Z,23.11
2023-11-23T08:31:11.232Z,22.47
2023-11-23T08:36:12.861Z,23.44
2023-11-23T08:41:14.516Z,23.36
2023-11-23T08:46:16.102Z,22.59
2023-11-23T08:51:17.710Z,22.88
2023-11-23T08:56:19.332Z,23.72
2023-11-23T09:01:21.508Z,23.23
2023-11-23T09:06:24.050Z,23.42
2023-11-23T09:11:27.207Z,24.02
2023-11-23T09:16:28.751Z,24.20
2023-11-23T09:21:30.409Z,24.09
2023-11-23T09:26:33.491Z,24.82
2023-11-23T09:31:35.699Z,22.78
2023-11-23T09:36:37.335Z,24.37
2023-11-23T09:41:44.958Z,24.07
2023-11-23T09:46:47.559Z,23.39
2023-11-23T09:51:53.272Z,23.83
2023-11-23T09:56:55.401Z,25.35
2023-11-23T10:02:05.424Z,23.62
2023-11-23T10:07:07.632Z,23.76
2023-11-23T10:12:09.300Z,23.88
2023-11-23T10:17:10.922Z,24.20
2023-11-23T10:22:12.521Z,23.06
2023-11-23T10:27:14.112Z,23.64
2023-11-23T10:32:17.508Z,24.69
2023-11-23T10:37:24.986Z,23.38
2023-11-23T10:42:32.930Z,23.02
2023-11-23T10:47:37.731Z,24.09
2023-11-23T10:52:43.010Z,25.13
2023-11-23T10:57:56.956Z,24.24
2023-11-23T11:03:03.991Z,24.41
2023-11-23T11:08:08.381Z,24.62
2023-11-23T11:13:15.771Z,24.63
2023-11-23T11:18:22.215Z,24.59
2023-11-23T11:23:23.763Z,23.97
2023-11-23T11:28:29.688Z,24.22
2023-11-23T11:33:33.040Z,23.97
2023-11-23T11:38:40.494Z,23.85
2023-11-23T11:43:45.357Z,24.86
2023-11-23T11:48:47.608Z,24.54
2023-11-23T11:53:49.240Z,24.08
2023-11-23T11:58:50.882Z,24.86
2023-11-23T12:03:52.637Z,23.99
2023-11-23T12:08:54.307Z,24.66
2023-11-23T12:13:56.646Z,24.44
2023-11-23T12:18:58.213Z,25.07
2023-11-23T12:24:01.315Z,24.61
2023-11-23T12:29:04.141Z,25.00
2023-11-23T12:34:06.367Z,24.47
2023-11-23T12:39:08.565Z,24.78
2023-11-23T12:44:10.485Z,24.60
2023-11-23T12:49:12.151Z,24.63
2023-11-23T12:54:16.211Z,24.31
2023-11-23T12:59:18.140Z,24.68
2023-11-23T13:04:21.465Z,24.63
2023-11-23T13:09:25.369Z,25.72
2023-11-23T13:14:28.155Z,24.16
2023-11-23T13:19:39.953Z,24.40
2023-11-23T13:24:44.850Z,24.59
2023-11-23T13:29:46.414Z,25.06
2023-11-23T13:34:48.049Z,25.22
2023-11-23T13:39:49.652Z,25.65
2023-11-23T13:44:51.218Z,24.65
2023-11-23T13:49:54.109Z,24.64
2023-11-23T13:54:55.700Z,25.17
2023-11-23T13:59:58.864Z,24.59
2023-11-23T14:05:00.456Z,24.55
2023-11-23T14:10:02.120Z,24.03
2023-11-23T14:15:04.799Z,24.38
2023-11-23T14:20:07.911Z,25.75
2023-11-23T14:25:10.359Z,24.57
2023-11-23T14:30:12.806Z,25.41
2023-11-23T14:35:16.083Z,24.57
2023-11-23T14:40:20.287Z,25.34
2023-11-23T14:45:22.977Z,24.33
2023-11-23T14:50:28.081Z,24.53
2023-11-23T14:55:29.645Z,24.19
2023-11-23T15:00:31.853Z,24.57
2023-11-23T15:05:33.653Z,24.00
2023-11-23T15:10:35.229Z,24.45
2023-11-23T15:15:37.153Z,25.02
2023-11-23T15:20:39.994Z,24.50
2023-11-23T15:25:46.997Z,24.79
2023-11-23T15:30:48.866Z,25.30
2023-11-23T15:35:50.971Z,24.32
2023-11-23T15:40:52.759Z,25.46
2023-11-23T15:45:54.307Z,24.57
2023-11-23T15:50:55.871Z,24.61
2023-11-23T15:55:57.434Z,24.96
2023-11-23T16:01:00.296Z,24.80
2023-11-23T16:06:02.167Z,24.18
2023-11-23T16:11:04.250Z,24.80
2023-11-23T16:16:07.316Z,24.74
2023-11-23T16:21:09.684Z,24.75
2023-11-23T16:26:11.335Z,24.51
2023-11-23T16:31:12.956Z,24.78
2023-11-23T16:36:26.404Z,24.38
2023-11-23T16:41:35.052Z,25.09
2023-11-23T16:46:36.591Z,25.01
2023-11-23T16:51:41.738Z,24.14
2023-11-23T16:56:43.310Z,23.54
2023-11-23T17:01:46.068Z,24.77
2023-11-23T17:06:47.817Z,23.88
2023-11-23T17:11:53.705Z,24.45
2023-11-23T17:16:55.444Z,24.27
2023-11-23T17:21:58.277Z,23.75
2023-11-23T17:27:00.428Z,23.89
2023-11-23T17:32:06.081Z,24.92
2023-11-23T17:37:08.220Z,24.25
2023-11-23T17:42:09.771Z,24.55
2023-11-23T17:47:12.244Z,23.47
2023-11-23T17:52:14.644Z,24.08
2023-11-23T17:57:16.504Z,23.71
2023-11-23T18:02:21.269Z,24.31
2023-11-23T18:07:23.125Z,24.10
2023-11-23T18:12:24.931Z,24.04
2023-11-23T18:17:26.539Z,23.53
2023-11-23T18:22:28.111Z,23.97
2023-11-23T18:27:29.888Z,24.35
2023-11-23T18:32:33.066Z,25.08
2023-11-23T18:37:34.830Z,23.66
2023-11-23T18:42:40.305Z,23.94
2023-11-23T18:47:45.444Z,22.96
2023-11-23T18:52:47.023Z,23.92
2023-11-23T18:57:48.656Z,24.08
2023-11-23T19:02:53.056Z,24.00
2023-11-23T19:07:55.290Z,23.69
2023-11-23T19:13:04.091Z,24.20
2023-11-23T19:18:09.125Z,24.14
2023-11-23T19:23:11.284Z,23.29
2023-11-23T19:28:13.277Z,24.06
2023-11-23T19:33:15.303Z,24.90
2023-11-23T19:38:17.204Z,24.60
2023-11-23T19:43:18.994Z,23.42
2023-11-23T19:48:20.854Z,23.88
2023-11-23T19:53:26.754Z,23.92
2023-11-23T19:58:28.355Z,23.80
2023-11-23T20:03:30.740Z,24.46
2023-11-23T20:08:33.006Z,24.83
2023-11-23T20:13:34.578Z,24.28
2023-11-23T20:18:36.317Z,22.71
2023-11-23T20:23:39.537Z,22.69
2023-11-23T20:28:41.185Z,22.50
2023-11-23T20:33:42.802Z,22.52
2023-11-23T20:38:45.262Z,23.39
2023-11-23T20:43:46.804Z,22.21
2023-11-23T20:48:50.853Z,22.40
2023-11-23T20:53:53.710Z,23.02
2023-11-23T20:58:59.652Z,23.17
2023-11-23T21:04:01.741Z,23.06
2023-11-23T21:09:04.434Z,21.99
2023-11-23T21:14:08.262Z,23.66
2023-11-23T21:19:09.861Z,23.18
2023-11-23T21:24:14.047Z,22.70
2023-11-23T21:29:16.315Z,23.16
2023-11-23T21:34:17.985Z,24.03
2023-11-23T21:39:19.534Z,23.83
2023-11-23T21:44:21.673Z,23.85
2023-11-23T21:49:23.289Z,23.21
2023-11-23T21:54:25.176Z,23.27
2023-11-23T21:59:27.953Z,23.14
2023-11-23T22:04:29.706Z,23.10
2023-11-23T22:09:31.808Z,22.96
2023-11-23T22:14:33.448Z,23.01
2023-11-23T22:19:35.246Z,23.12
2023-11-23T22:24:38.679Z,23.19
2023-11-23T22:29:40.473Z,22.53
2023-11-23T22:34:42.390Z,23.77
2023-11-23T22:39:44.077Z,22.87
2023-11-23T22:44:45.816Z,21.54
2023-11-23T22:49:48.771Z,21.65
2023-11-23T22:54:52.315Z,19.92
2023-11-23T22:59:53.885Z,20.50
2023-11-23T23:04:55.417Z,21.98
2023-11-23T23:09:56.984Z,21.40
2023-11-23T23:14:58.546Z,21.42
2023-11-23T23:20:04.018Z,20.60
2023-11-23T23:25:06.096Z,20.57
2023-11-23T23:30:10.058Z,21.12
2023-11-23T23:35:11.968Z,20.87
2023-11-23T23:40:14.785Z,21.85
2023-11-23T23:45:16.488Z,22.22
2023-11-23T23:50:19.575Z,19.89
2023-11-23T23:55:21.485Z,20.73
